sensor_id;sensor_type;location;lat;lon;timestamp;temperature;humidity
43089;DHT22;28709;52.030;5.652;2022-12-07T00:01:36;3.60;99.90
43089;DHT22;28709;52.030;5.652;2022-12-07T00:04:05;3.60;99.90
43089;DHT22;28709;52.030;5.652;2022-12-07T00:06:40;3.60;99.90
43089;DHT22;28709;52.030;5.652;2022-12-07T00:09:07;3.60;99.90
43089;DHT22;28709;52.030;5.652;2022-12-07T00:11:33;3.50;99.90
43089;DHT22;28709;52.030;5.652;2022-12-07T00:14:01;3.50;99.90
43089;DHT22;28709;52.030;5.652;2022-12-07T00:16:29;3.50;99.90
43089;DHT22;28709;52.030;5.652;2022-12-07T00:18:56;3.50;99.90
43089;DHT22;28709;52.030;5.652;2022-12-07T00:21:25;3.50;99.90
43089;DHT22;28709;52.030;5.652;2022-12-07T00:23:52;3.50;99.90
43089;DHT22;28709;52.030;5.652;2022-12-07T00:26:27;3.40;99.90
43089;DHT22;28709;52.030;5.652;2022-12-07T00:28:55;3.40;99.90
43089;DHT22;28709;52.030;5.652;2022-12-07T00:31:23;3.40;99.90
43089;DHT22;28709;52.030;5.652;2022-12-07T00:33:49;3.40;99.90
43089;DHT22;28709;52.030;5.652;2022-12-07T00:36:17;3.40;99.90
43089;DHT22;28709;52.030;5.652;2022-12-07T00:38:43;3.40;99.90
43089;DHT22;28709;52.030;5.652;2022-12-07T00:41:14;3.40;99.90
43089;DHT22;28709;52.030;5.652;2022-12-07T00:43:41;3.40;99.90
43089;DHT22;28709;52.030;5.652;2022-12-07T00:46:08;3.50;99.90
43089;DHT22;28709;52.030;5.652;2022-12-07T00:48:34;3.40;99.90
43089;DHT22;28709;52.030;5.652;2022-12-07T00:51:00;3.40;99.90
43089;DHT22;28709;52.030;5.652;2022-12-07T00:53:26;3.40;99.90
43089;DHT22;28709;52.030;5.652;2022-12-07T00:55:52;3.40;99.90
43089;DHT22;28709;52.030;5.652;2022-12-07T00:58:18;3.40;99.90
43089;DHT22;28709;52.030;5.652;2022-12-07T01:00:44;3.40;99.90
43089;DHT22;28709;52.030;5.652;2022-12-07T01:03:12;3.40;99.90
43089;DHT22;28709;52.030;5.652;2022-12-07T01:05:38;3.40;99.90
43089;DHT22;28709;52.030;5.652;2022-12-07T01:08:04;3.40;99.90
43089;DHT22;28709;52.030;5.652;2022-12-07T01:10:30;3.30;99.90
43089;DHT22;28709;52.030;5.652;2022-12-07T01:12:57;3.30;99.90
43089;DHT22;28709;52.030;5.652;2022-12-07T01:15:23;3.30;99.90
43089;DHT22;28709;52.030;5.652;2022-12-07T01:17:49;3.30;99.90
43089;DHT22;28709;52.030;5.652;2022-12-07T01:20:15;3.30;99.90
43089;DHT22;28709;52.030;5.652;2022-12-07T01:22:42;3.30;99.90
43089;DHT22;28709;52.030;5.652;2022-12-07T01:25:10;3.30;99.90
43089;DHT22;28709;52.030;5.652;2022-12-07T01:27:37;3.30;99.90
43089;DHT22;28709;52.030;5.652;2022-12-07T01:30:05;3.30;99.90
43089;DHT22;28709;52.030;5.652;2022-12-07T01:32:31;3.30;99.90
43089;DHT22;28709;52.030;5.652;2022-12-07T01:34:57;3.30;99.90
43089;DHT22;28709;52.030;5.652;2022-12-07T01:37:23;3.30;99.90
43089;DHT22;28709;52.030;5.652;2022-12-07T01:39:50;3.30;99.90
43089;DHT22;28709;52.030;5.652;2022-12-07T01:42:16;3.20;99.90
43089;DHT22;28709;52.030;5.652;2022-12-07T01:47:46;3.10;99.90
43089;DHT22;28709;52.030;5.652;2022-12-07T01:50:13;3.10;99.90
43089;DHT22;28709;52.030;5.652;2022-12-07T01:52:40;3.00;99.90
43089;DHT22;28709;52.030;5.652;2022-12-07T01:55:12;3.00;99.90
43089;DHT22;28709;52.030;5.652;2022-12-07T01:57:43;3.00;99.90
43089;DHT22;28709;52.030;5.652;2022-12-07T02:00:11;3.10;99.90
43089;DHT22;28709;52.030;5.652;2022-12-07T02:02:48;3.10;99.90
43089;DHT22;28709;52.030;5.652;2022-12-07T02:05:17;3.10;99.90
43089;DHT22;28709;52.030;5.652;2022-12-07T02:07:42;3.10;99.90
43089;DHT22;28709;52.030;5.652;2022-12-07T02:10:48;3.10;99.90
43089;DHT22;28709;52.030;5.652;2022-12-07T02:13:16;3.10;99.90
43089;DHT22;28709;52.030;5.652;2022-12-07T02:21:43;3.00;99.90
43089;DHT22;28709;52.030;5.652;2022-12-07T02:32:02;2.90;99.90
43089;DHT22;28709;52.030;5.652;2022-12-07T02:37:14;2.90;99.90
43089;DHT22;28709;52.030;5.652;2022-12-07T02:39:51;2.80;99.90
43089;DHT22;28709;52.030;5.652;2022-12-07T02:42:20;2.80;99.90
43089;DHT22;28709;52.030;5.652;2022-12-07T02:44:49;2.80;99.90
43089;DHT22;28709;52.030;5.652;2022-12-07T02:47:17;2.70;99.90
43089;DHT22;28709;52.030;5.652;2022-12-07T02:49:45;2.70;99.90
43089;DHT22;28709;52.030;5.652;2022-12-07T02:52:11;2.70;99.90
43089;DHT22;28709;52.030;5.652;2022-12-07T02:54:36;2.80;99.90
43089;DHT22;28709;52.030;5.652;2022-12-07T03:07:41;3.00;99.90
43089;DHT22;28709;52.030;5.652;2022-12-07T03:16:09;3.10;99.90
43089;DHT22;28709;52.030;5.652;2022-12-07T03:19:06;3.20;99.90
43089;DHT22;28709;52.030;5.652;2022-12-07T03:21:40;3.20;99.90
43089;DHT22;28709;52.030;5.652;2022-12-07T03:24:12;3.30;99.90
43089;DHT22;28709;52.030;5.652;2022-12-07T03:26:42;3.30;99.90
43089;DHT22;28709;52.030;5.652;2022-12-07T03:29:33;3.40;99.90
43089;DHT22;28709;52.030;5.652;2022-12-07T03:32:08;3.40;99.90
43089;DHT22;28709;52.030;5.652;2022-12-07T03:37:12;3.40;99.90
43089;DHT22;28709;52.030;5.652;2022-12-07T03:39:46;3.40;99.90
43089;DHT22;28709;52.030;5.652;2022-12-07T03:42:15;3.50;99.90
43089;DHT22;28709;52.030;5.652;2022-12-07T03:44:41;3.50;99.90
43089;DHT22;28709;52.030;5.652;2022-12-07T03:47:51;3.50;99.90
43089;DHT22;28709;52.030;5.652;2022-12-07T03:52:55;3.60;99.90
43089;DHT22;28709;52.030;5.652;2022-12-07T03:55:30;3.60;99.90
43089;DHT22;28709;52.030;5.652;2022-12-07T03:58:01;3.60;99.90
43089;DHT22;28709;52.030;5.652;2022-12-07T04:00:28;3.60;99.90
43089;DHT22;28709;52.030;5.652;2022-12-07T04:02:54;3.60;99.90
43089;DHT22;28709;52.030;5.652;2022-12-07T04:05:20;3.50;99.90
43089;DHT22;28709;52.030;5.652;2022-12-07T04:07:46;3.50;99.90
43089;DHT22;28709;52.030;5.652;2022-12-07T04:10:13;3.50;99.90
43089;DHT22;28709;52.030;5.652;2022-12-07T04:12:38;3.40;99.90
43089;DHT22;28709;52.030;5.652;2022-12-07T04:15:05;3.40;99.90
43089;DHT22;28709;52.030;5.652;2022-12-07T04:17:31;3.30;99.90
43089;DHT22;28709;52.030;5.652;2022-12-07T04:19:56;3.30;99.90
43089;DHT22;28709;52.030;5.652;2022-12-07T04:22:22;3.30;99.90
43089;DHT22;28709;52.030;5.652;2022-12-07T04:24:48;3.30;99.90
43089;DHT22;28709;52.030;5.652;2022-12-07T04:27:14;3.30;99.90
43089;DHT22;28709;52.030;5.652;2022-12-07T04:29:39;3.30;99.90
43089;DHT22;28709;52.030;5.652;2022-12-07T04:32:05;3.40;99.90
43089;DHT22;28709;52.030;5.652;2022-12-07T04:34:30;3.40;99.90
43089;DHT22;28709;52.030;5.652;2022-12-07T04:36:56;3.50;99.90
43089;DHT22;28709;52.030;5.652;2022-12-07T04:39:30;3.50;99.90
43089;DHT22;28709;52.030;5.652;2022-12-07T04:41:56;3.60;99.90
43089;DHT22;28709;52.030;5.652;2022-12-07T04:44:24;3.60;99.90
43089;DHT22;28709;52.030;5.652;2022-12-07T04:46:51;3.70;99.90
43089;DHT22;28709;52.030;5.652;2022-12-07T04:49:17;3.70;99.90
43089;DHT22;28709;52.030;5.652;2022-12-07T04:51:44;3.70;99.90
43089;DHT22;28709;52.030;5.652;2022-12-07T04:54:10;3.70;99.90
43089;DHT22;28709;52.030;5.652;2022-12-07T04:56:36;3.70;99.90
43089;DHT22;28709;52.030;5.652;2022-12-07T04:59:03;3.70;99.90
43089;DHT22;28709;52.030;5.652;2022-12-07T05:01:29;3.70;99.90
43089;DHT22;28709;52.030;5.652;2022-12-07T05:03:54;3.70;99.90
43089;DHT22;28709;52.030;5.652;2022-12-07T05:06:20;3.70;99.90
43089;DHT22;28709;52.030;5.652;2022-12-07T05:08:46;3.70;99.90
43089;DHT22;28709;52.030;5.652;2022-12-07T05:11:12;3.70;99.90
43089;DHT22;28709;52.030;5.652;2022-12-07T05:13:58;3.70;99.90
43089;DHT22;28709;52.030;5.652;2022-12-07T05:16:24;3.70;99.90
43089;DHT22;28709;52.030;5.652;2022-12-07T05:18:50;3.80;99.90
43089;DHT22;28709;52.030;5.652;2022-12-07T05:21:15;3.70;99.90
43089;DHT22;28709;52.030;5.652;2022-12-07T05:23:41;3.70;99.90
43089;DHT22;28709;52.030;5.652;2022-12-07T05:26:07;3.70;99.90
43089;DHT22;28709;52.030;5.652;2022-12-07T05:28:32;3.70;99.90
43089;DHT22;28709;52.030;5.652;2022-12-07T05:30:58;3.70;99.90
43089;DHT22;28709;52.030;5.652;2022-12-07T05:33:23;3.70;99.90
43089;DHT22;28709;52.030;5.652;2022-12-07T05:35:49;3.70;99.90
43089;DHT22;28709;52.030;5.652;2022-12-07T05:38:15;3.60;99.90
43089;DHT22;28709;52.030;5.652;2022-12-07T05:40:40;3.60;99.90
43089;DHT22;28709;52.030;5.652;2022-12-07T05:43:06;3.50;99.90
43089;DHT22;28709;52.030;5.652;2022-12-07T05:45:31;3.50;99.90
43089;DHT22;28709;52.030;5.652;2022-12-07T05:47:57;3.40;99.90
43089;DHT22;28709;52.030;5.652;2022-12-07T05:50:23;3.40;99.90
43089;DHT22;28709;52.030;5.652;2022-12-07T05:52:49;3.30;99.90
43089;DHT22;28709;52.030;5.652;2022-12-07T05:55:14;3.30;99.90
43089;DHT22;28709;52.030;5.652;2022-12-07T05:57:40;3.20;99.90
43089;DHT22;28709;52.030;5.652;2022-12-07T06:00:25;3.20;99.90
43089;DHT22;28709;52.030;5.652;2022-12-07T06:02:51;3.10;99.90
43089;DHT22;28709;52.030;5.652;2022-12-07T06:05:17;3.10;99.90
43089;DHT22;28709;52.030;5.652;2022-12-07T06:07:42;3.10;99.90
43089;DHT22;28709;52.030;5.652;2022-12-07T06:10:08;3.00;99.90
43089;DHT22;28709;52.030;5.652;2022-12-07T06:12:34;3.00;99.90
43089;DHT22;28709;52.030;5.652;2022-12-07T06:14:59;3.00;99.90
43089;DHT22;28709;52.030;5.652;2022-12-07T06:17:25;3.00;99.90
43089;DHT22;28709;52.030;5.652;2022-12-07T06:19:51;3.00;99.90
43089;DHT22;28709;52.030;5.652;2022-12-07T06:22:17;2.90;99.90
43089;DHT22;28709;52.030;5.652;2022-12-07T06:24:43;2.90;99.90
43089;DHT22;28709;52.030;5.652;2022-12-07T06:27:09;3.00;99.90
43089;DHT22;28709;52.030;5.652;2022-12-07T06:29:35;3.00;99.90
43089;DHT22;28709;52.030;5.652;2022-12-07T06:32:01;3.10;99.90
43089;DHT22;28709;52.030;5.652;2022-12-07T06:34:27;3.20;99.90
43089;DHT22;28709;52.030;5.652;2022-12-07T06:36:53;3.20;99.90
43089;DHT22;28709;52.030;5.652;2022-12-07T06:39:25;3.30;99.90
43089;DHT22;28709;52.030;5.652;2022-12-07T06:41:51;3.30;99.90
43089;DHT22;28709;52.030;5.652;2022-12-07T06:44:20;3.40;99.90
43089;DHT22;28709;52.030;5.652;2022-12-07T06:46:47;3.40;99.90
43089;DHT22;28709;52.030;5.652;2022-12-07T06:49:12;3.40;99.90
43089;DHT22;28709;52.030;5.652;2022-12-07T06:51:38;3.40;99.90
43089;DHT22;28709;52.030;5.652;2022-12-07T06:54:10;3.40;99.90
43089;DHT22;28709;52.030;5.652;2022-12-07T06:56:36;3.40;99.90
43089;DHT22;28709;52.030;5.652;2022-12-07T06:59:03;3.50;99.90
43089;DHT22;28709;52.030;5.652;2022-12-07T07:01:29;3.40;99.90
43089;DHT22;28709;52.030;5.652;2022-12-07T07:03:54;3.40;99.90
43089;DHT22;28709;52.030;5.652;2022-12-07T07:06:20;3.40;99.90
43089;DHT22;28709;52.030;5.652;2022-12-07T07:08:46;3.40;99.90
43089;DHT22;28709;52.030;5.652;2022-12-07T07:11:11;3.40;99.90
43089;DHT22;28709;52.030;5.652;2022-12-07T07:13:37;3.50;99.90
43089;DHT22;28709;52.030;5.652;2022-12-07T07:16:03;3.40;99.90
43089;DHT22;28709;52.030;5.652;2022-12-07T07:18:29;3.50;99.90
43089;DHT22;28709;52.030;5.652;2022-12-07T07:20:55;3.50;99.90
43089;DHT22;28709;52.030;5.652;2022-12-07T07:23:21;3.50;99.90
43089;DHT22;28709;52.030;5.652;2022-12-07T07:25:47;3.50;99.90
43089;DHT22;28709;52.030;5.652;2022-12-07T07:28:14;3.50;99.90
43089;DHT22;28709;52.030;5.652;2022-12-07T07:30:39;3.50;99.90
43089;DHT22;28709;52.030;5.652;2022-12-07T07:33:05;3.40;99.90
43089;DHT22;28709;52.030;5.652;2022-12-07T07:35:33;3.30;99.90
43089;DHT22;28709;52.030;5.652;2022-12-07T07:37:59;3.30;99.90
43089;DHT22;28709;52.030;5.652;2022-12-07T07:40:25;3.30;99.90
43089;DHT22;28709;52.030;5.652;2022-12-07T07:42:52;3.20;99.90
43089;DHT22;28709;52.030;5.652;2022-12-07T07:45:19;3.20;99.90
43089;DHT22;28709;52.030;5.652;2022-12-07T07:47:45;3.20;99.90
43089;DHT22;28709;52.030;5.652;2022-12-07T07:50:11;3.10;99.90
43089;DHT22;28709;52.030;5.652;2022-12-07T07:52:37;3.10;99.90
43089;DHT22;28709;52.030;5.652;2022-12-07T07:55:02;3.10;99.90
43089;DHT22;28709;52.030;5.652;2022-12-07T07:57:28;3.10;99.90
43089;DHT22;28709;52.030;5.652;2022-12-07T07:59:54;3.00;99.90
43089;DHT22;28709;52.030;5.652;2022-12-07T08:02:21;3.10;99.90
43089;DHT22;28709;52.030;5.652;2022-12-07T08:04:47;3.00;99.90
43089;DHT22;28709;52.030;5.652;2022-12-07T08:07:14;3.00;99.90
43089;DHT22;28709;52.030;5.652;2022-12-07T08:09:40;3.00;99.90
43089;DHT22;28709;52.030;5.652;2022-12-07T08:12:05;3.10;99.90
43089;DHT22;28709;52.030;5.652;2022-12-07T08:14:32;3.10;99.90
43089;DHT22;28709;52.030;5.652;2022-12-07T08:16:58;3.10;99.90
43089;DHT22;28709;52.030;5.652;2022-12-07T08:19:24;3.20;99.90
43089;DHT22;28709;52.030;5.652;2022-12-07T08:21:49;3.30;99.90
43089;DHT22;28709;52.030;5.652;2022-12-07T08:24:15;3.40;99.90
43089;DHT22;28709;52.030;5.652;2022-12-07T08:26:41;3.60;99.90
43089;DHT22;28709;52.030;5.652;2022-12-07T08:29:07;3.60;99.90
43089;DHT22;28709;52.030;5.652;2022-12-07T08:31:33;3.80;99.90
43089;DHT22;28709;52.030;5.652;2022-12-07T08:33:58;3.80;99.90
43089;DHT22;28709;52.030;5.652;2022-12-07T08:36:24;3.90;99.90
43089;DHT22;28709;52.030;5.652;2022-12-07T08:38:50;4.00;99.90
43089;DHT22;28709;52.030;5.652;2022-12-07T08:41:16;4.10;99.90
43089;DHT22;28709;52.030;5.652;2022-12-07T08:43:42;4.20;99.90
43089;DHT22;28709;52.030;5.652;2022-12-07T08:49:09;4.30;99.90
43089;DHT22;28709;52.030;5.652;2022-12-07T08:51:37;4.40;99.90
43089;DHT22;28709;52.030;5.652;2022-12-07T08:54:06;4.50;99.90
43089;DHT22;28709;52.030;5.652;2022-12-07T08:56:33;4.60;99.90
43089;DHT22;28709;52.030;5.652;2022-12-07T08:58:59;4.70;99.90
43089;DHT22;28709;52.030;5.652;2022-12-07T09:01:25;4.70;99.90
43089;DHT22;28709;52.030;5.652;2022-12-07T09:03:50;4.80;99.90
43089;DHT22;28709;52.030;5.652;2022-12-07T09:06:16;4.90;99.90
43089;DHT22;28709;52.030;5.652;2022-12-07T09:08:46;5.00;99.90
43089;DHT22;28709;52.030;5.652;2022-12-07T09:11:13;5.10;99.90
43089;DHT22;28709;52.030;5.652;2022-12-07T09:13:38;5.30;99.90
43089;DHT22;28709;52.030;5.652;2022-12-07T09:16:04;5.70;99.90
43089;DHT22;28709;52.030;5.652;2022-12-07T09:18:30;6.00;99.90
43089;DHT22;28709;52.030;5.652;2022-12-07T09:20:56;6.10;99.90
43089;DHT22;28709;52.030;5.652;2022-12-07T09:23:22;6.30;99.90
43089;DHT22;28709;52.030;5.652;2022-12-07T09:25:48;6.40;99.90
43089;DHT22;28709;52.030;5.652;2022-12-07T09:28:13;6.30;99.90
43089;DHT22;28709;52.030;5.652;2022-12-07T09:30:44;6.30;99.90
43089;DHT22;28709;52.030;5.652;2022-12-07T09:33:10;6.40;99.90
43089;DHT22;28709;52.030;5.652;2022-12-07T09:35:35;7.00;99.90
43089;DHT22;28709;52.030;5.652;2022-12-07T09:38:01;7.60;99.90
43089;DHT22;28709;52.030;5.652;2022-12-07T09:40:28;8.30;99.90
43089;DHT22;28709;52.030;5.652;2022-12-07T09:42:55;8.90;99.90
43089;DHT22;28709;52.030;5.652;2022-12-07T09:45:24;9.50;99.90
43089;DHT22;28709;52.030;5.652;2022-12-07T09:47:50;10.00;99.90
43089;DHT22;28709;52.030;5.652;2022-12-07T09:50:24;10.60;99.90
43089;DHT22;28709;52.030;5.652;2022-12-07T09:52:52;11.10;99.90
43089;DHT22;28709;52.030;5.652;2022-12-07T09:55:29;11.50;99.90
43089;DHT22;28709;52.030;5.652;2022-12-07T09:57:57;11.80;99.90
43089;DHT22;28709;52.030;5.652;2022-12-07T10:00:23;11.40;99.90
43089;DHT22;28709;52.030;5.652;2022-12-07T10:03:00;10.70;99.90
43089;DHT22;28709;52.030;5.652;2022-12-07T10:05:38;10.30;99.90
43089;DHT22;28709;52.030;5.652;2022-12-07T10:08:11;9.80;99.90
43089;DHT22;28709;52.030;5.652;2022-12-07T10:10:38;9.40;99.90
43089;DHT22;28709;52.030;5.652;2022-12-07T10:13:18;9.00;99.90
43089;DHT22;28709;52.030;5.652;2022-12-07T10:15:52;8.60;99.90
43089;DHT22;28709;52.030;5.652;2022-12-07T10:18:30;8.40;99.90
43089;DHT22;28709;52.030;5.652;2022-12-07T10:23:58;8.30;99.90
43089;DHT22;28709;52.030;5.652;2022-12-07T10:26:52;8.70;99.90
43089;DHT22;28709;52.030;5.652;2022-12-07T10:29:38;9.00;99.90
43089;DHT22;28709;52.030;5.652;2022-12-07T10:34:42;8.80;99.90
43089;DHT22;28709;52.030;5.652;2022-12-07T10:39:54;9.40;99.90
43089;DHT22;28709;52.030;5.652;2022-12-07T10:42:26;9.90;99.90
43089;DHT22;28709;52.030;5.652;2022-12-07T10:45:15;10.00;99.90
43089;DHT22;28709;52.030;5.652;2022-12-07T10:47:48;10.10;99.90
43089;DHT22;28709;52.030;5.652;2022-12-07T11:01:02;11.50;99.90
43089;DHT22;28709;52.030;5.652;2022-12-07T11:06:39;10.40;99.90
43089;DHT22;28709;52.030;5.652;2022-12-07T11:11:55;9.80;99.90
43089;DHT22;28709;52.030;5.652;2022-12-07T11:14:26;10.30;99.90
43089;DHT22;28709;52.030;5.652;2022-12-07T11:17:14;11.30;99.90
43089;DHT22;28709;52.030;5.652;2022-12-07T11:33:44;12.60;99.90
43089;DHT22;28709;52.030;5.652;2022-12-07T11:38:48;13.70;99.90
43089;DHT22;28709;52.030;5.652;2022-12-07T11:41:22;14.00;99.90
43089;DHT22;28709;52.030;5.652;2022-12-07T11:44:04;13.70;99.90
43089;DHT22;28709;52.030;5.652;2022-12-07T11:46:49;13.10;99.90
43089;DHT22;28709;52.030;5.652;2022-12-07T11:51:49;12.60;99.90
43089;DHT22;28709;52.030;5.652;2022-12-07T11:54:34;12.70;99.90
43089;DHT22;28709;52.030;5.652;2022-12-07T11:57:10;12.20;99.90
43089;DHT22;28709;52.030;5.652;2022-12-07T11:59:47;11.70;99.90
43089;DHT22;28709;52.030;5.652;2022-12-07T12:03:12;11.00;99.90
43089;DHT22;28709;52.030;5.652;2022-12-07T12:05:19;10.40;99.90
43089;DHT22;28709;52.030;5.652;2022-12-07T12:07:59;10.10;99.90
43089;DHT22;28709;52.030;5.652;2022-12-07T12:10:54;10.80;99.90
43089;DHT22;28709;52.030;5.652;2022-12-07T12:21:30;12.90;99.90
43089;DHT22;28709;52.030;5.652;2022-12-07T12:24:04;13.40;99.90
43089;DHT22;28709;52.030;5.652;2022-12-07T12:26:36;13.60;99.90
43089;DHT22;28709;52.030;5.652;2022-12-07T12:29:05;13.70;99.90
43089;DHT22;28709;52.030;5.652;2022-12-07T12:31:35;13.70;99.90
43089;DHT22;28709;52.030;5.652;2022-12-07T12:34:04;14.20;99.90
43089;DHT22;28709;52.030;5.652;2022-12-07T12:36:44;14.60;99.90
43089;DHT22;28709;52.030;5.652;2022-12-07T12:39:14;15.00;99.90
43089;DHT22;28709;52.030;5.652;2022-12-07T12:47:04;15.00;99.90
43089;DHT22;28709;52.030;5.652;2022-12-07T12:49:42;14.50;99.70
43089;DHT22;28709;52.030;5.652;2022-12-07T12:57:36;14.50;99.40
43089;DHT22;28709;52.030;5.652;2022-12-07T13:00:22;14.90;99.40
43089;DHT22;28709;52.030;5.652;2022-12-07T13:02:52;15.10;98.70
43089;DHT22;28709;52.030;5.652;2022-12-07T13:05:21;15.10;98.80
43089;DHT22;28709;52.030;5.652;2022-12-07T13:13:29;15.30;97.80
43089;DHT22;28709;52.030;5.652;2022-12-07T13:23:39;15.50;96.40
43089;DHT22;28709;52.030;5.652;2022-12-07T13:36:53;15.00;96.00
43089;DHT22;28709;52.030;5.652;2022-12-07T13:39:24;14.40;95.90
43089;DHT22;28709;52.030;5.652;2022-12-07T13:41:56;13.30;96.70
43089;DHT22;28709;52.030;5.652;2022-12-07T13:44:23;12.30;98.20
43089;DHT22;28709;52.030;5.652;2022-12-07T13:51:49;10.00;99.90
43089;DHT22;28709;52.030;5.652;2022-12-07T13:54:15;9.40;99.90
43089;DHT22;28709;52.030;5.652;2022-12-07T13:56:41;9.00;99.90
43089;DHT22;28709;52.030;5.652;2022-12-07T13:59:27;8.70;99.90
43089;DHT22;28709;52.030;5.652;2022-12-07T14:01:53;8.40;99.90
43089;DHT22;28709;52.030;5.652;2022-12-07T14:04:33;8.20;99.90
43089;DHT22;28709;52.030;5.652;2022-12-07T14:07:00;8.00;99.90
43089;DHT22;28709;52.030;5.652;2022-12-07T14:09:28;7.90;99.90
43089;DHT22;28709;52.030;5.652;2022-12-07T14:11:56;7.70;99.90
43089;DHT22;28709;52.030;5.652;2022-12-07T14:14:30;7.60;99.90
43089;DHT22;28709;52.030;5.652;2022-12-07T14:17:02;7.60;99.90
43089;DHT22;28709;52.030;5.652;2022-12-07T14:19:48;7.50;99.90
43089;DHT22;28709;52.030;5.652;2022-12-07T14:22:41;7.50;99.90
43089;DHT22;28709;52.030;5.652;2022-12-07T14:27:46;7.40;99.90
43089;DHT22;28709;52.030;5.652;2022-12-07T14:30:17;7.40;99.90
43089;DHT22;28709;52.030;5.652;2022-12-07T14:32:43;7.30;99.90
43089;DHT22;28709;52.030;5.652;2022-12-07T14:35:16;7.30;99.90
43089;DHT22;28709;52.030;5.652;2022-12-07T14:37:46;7.20;99.90
43089;DHT22;28709;52.030;5.652;2022-12-07T14:40:22;7.10;99.90
43089;DHT22;28709;52.030;5.652;2022-12-07T14:42:53;7.00;99.90
43089;DHT22;28709;52.030;5.652;2022-12-07T14:45:21;7.00;99.90
43089;DHT22;28709;52.030;5.652;2022-12-07T14:47:47;6.90;99.90
43089;DHT22;28709;52.030;5.652;2022-12-07T14:50:18;6.90;99.90
43089;DHT22;28709;52.030;5.652;2022-12-07T14:52:55;6.80;99.90
43089;DHT22;28709;52.030;5.652;2022-12-07T14:55:29;6.80;99.90
43089;DHT22;28709;52.030;5.652;2022-12-07T14:57:55;6.80;99.90
43089;DHT22;28709;52.030;5.652;2022-12-07T15:00:23;6.80;99.90
43089;DHT22;28709;52.030;5.652;2022-12-07T15:02:50;6.80;99.90
43089;DHT22;28709;52.030;5.652;2022-12-07T15:05:16;6.80;99.90
43089;DHT22;28709;52.030;5.652;2022-12-07T15:07:42;6.80;99.90
43089;DHT22;28709;52.030;5.652;2022-12-07T15:10:21;6.70;99.90
43089;DHT22;28709;52.030;5.652;2022-12-07T15:12:47;6.70;99.90
43089;DHT22;28709;52.030;5.652;2022-12-07T15:15:13;6.70;99.90
43089;DHT22;28709;52.030;5.652;2022-12-07T15:17:39;6.70;99.90
43089;DHT22;28709;52.030;5.652;2022-12-07T15:20:11;6.60;99.90
43089;DHT22;28709;52.030;5.652;2022-12-07T15:22:37;6.50;99.90
43089;DHT22;28709;52.030;5.652;2022-12-07T15:25:02;6.50;99.90
43089;DHT22;28709;52.030;5.652;2022-12-07T15:27:30;6.40;99.90
43089;DHT22;28709;52.030;5.652;2022-12-07T15:29:56;6.40;99.90
43089;DHT22;28709;52.030;5.652;2022-12-07T15:32:21;6.40;99.90
43089;DHT22;28709;52.030;5.652;2022-12-07T15:34:48;6.30;99.90
43089;DHT22;28709;52.030;5.652;2022-12-07T15:37:15;6.30;99.90
43089;DHT22;28709;52.030;5.652;2022-12-07T15:39:41;6.30;99.90
43089;DHT22;28709;52.030;5.652;2022-12-07T15:42:07;6.20;99.90
43089;DHT22;28709;52.030;5.652;2022-12-07T15:44:33;6.20;99.90
43089;DHT22;28709;52.030;5.652;2022-12-07T15:47:17;6.20;99.90
43089;DHT22;28709;52.030;5.652;2022-12-07T15:49:43;6.20;99.90
43089;DHT22;28709;52.030;5.652;2022-12-07T15:52:08;6.20;99.90
43089;DHT22;28709;52.030;5.652;2022-12-07T15:54:34;6.10;99.90
43089;DHT22;28709;52.030;5.652;2022-12-07T15:57:00;6.00;99.90
43089;DHT22;28709;52.030;5.652;2022-12-07T15:59:27;5.90;99.90
43089;DHT22;28709;52.030;5.652;2022-12-07T16:01:53;5.80;99.90
43089;DHT22;28709;52.030;5.652;2022-12-07T16:04:19;5.70;99.90
43089;DHT22;28709;52.030;5.652;2022-12-07T16:06:44;5.70;99.90
43089;DHT22;28709;52.030;5.652;2022-12-07T16:09:10;5.60;99.90
43089;DHT22;28709;52.030;5.652;2022-12-07T16:11:36;5.60;99.90
43089;DHT22;28709;52.030;5.652;2022-12-07T16:14:02;5.60;99.90
43089;DHT22;28709;52.030;5.652;2022-12-07T16:16:28;5.60;99.90
43089;DHT22;28709;52.030;5.652;2022-12-07T16:18:54;5.60;99.90
43089;DHT22;28709;52.030;5.652;2022-12-07T16:21:20;5.60;99.90
43089;DHT22;28709;52.030;5.652;2022-12-07T16:23:46;5.60;99.90
43089;DHT22;28709;52.030;5.652;2022-12-07T16:26:17;5.50;99.90
43089;DHT22;28709;52.030;5.652;2022-12-07T16:28:44;5.50;99.90
43089;DHT22;28709;52.030;5.652;2022-12-07T16:31:14;5.40;99.90
43089;DHT22;28709;52.030;5.652;2022-12-07T16:33:41;5.40;99.90
43089;DHT22;28709;52.030;5.652;2022-12-07T16:36:09;5.30;99.90
43089;DHT22;28709;52.030;5.652;2022-12-07T16:38:35;5.30;99.90
43089;DHT22;28709;52.030;5.652;2022-12-07T16:41:01;5.30;99.90
43089;DHT22;28709;52.030;5.652;2022-12-07T16:43:26;5.30;99.90
43089;DHT22;28709;52.030;5.652;2022-12-07T16:45:52;5.20;99.90
43089;DHT22;28709;52.030;5.652;2022-12-07T16:48:18;5.30;99.90
43089;DHT22;28709;52.030;5.652;2022-12-07T16:50:44;5.20;99.90
43089;DHT22;28709;52.030;5.652;2022-12-07T16:53:10;5.20;99.90
43089;DHT22;28709;52.030;5.652;2022-12-07T16:55:45;5.20;99.90
43089;DHT22;28709;52.030;5.652;2022-12-07T16:58:15;5.10;99.90
43089;DHT22;28709;52.030;5.652;2022-12-07T17:00:42;5.10;99.90
43089;DHT22;28709;52.030;5.652;2022-12-07T17:03:08;5.10;99.90
43089;DHT22;28709;52.030;5.652;2022-12-07T17:05:38;5.10;99.90
43089;DHT22;28709;52.030;5.652;2022-12-07T17:08:04;5.10;99.90
43089;DHT22;28709;52.030;5.652;2022-12-07T17:10:30;5.10;99.90
43089;DHT22;28709;52.030;5.652;2022-12-07T17:12:57;5.10;99.90
43089;DHT22;28709;52.030;5.652;2022-12-07T17:15:23;5.10;99.90
43089;DHT22;28709;52.030;5.652;2022-12-07T17:17:54;5.00;99.90
43089;DHT22;28709;52.030;5.652;2022-12-07T17:20:21;5.00;99.90
43089;DHT22;28709;52.030;5.652;2022-12-07T17:22:47;5.00;99.90
43089;DHT22;28709;52.030;5.652;2022-12-07T17:25:14;5.00;99.90
43089;DHT22;28709;52.030;5.652;2022-12-07T17:27:40;5.00;99.90
43089;DHT22;28709;52.030;5.652;2022-12-07T17:30:06;5.00;99.90
43089;DHT22;28709;52.030;5.652;2022-12-07T17:32:32;4.90;99.90
43089;DHT22;28709;52.030;5.652;2022-12-07T17:34:58;4.90;99.90
43089;DHT22;28709;52.030;5.652;2022-12-07T17:37:25;4.90;99.90
43089;DHT22;28709;52.030;5.652;2022-12-07T17:39:51;4.90;99.90
43089;DHT22;28709;52.030;5.652;2022-12-07T17:42:17;4.80;99.90
43089;DHT22;28709;52.030;5.652;2022-12-07T17:45:06;4.80;99.90
43089;DHT22;28709;52.030;5.652;2022-12-07T17:47:32;4.80;99.90
43089;DHT22;28709;52.030;5.652;2022-12-07T17:49:57;4.80;99.90
43089;DHT22;28709;52.030;5.652;2022-12-07T17:52:23;4.80;99.90
43089;DHT22;28709;52.030;5.652;2022-12-07T17:55:07;4.80;99.90
43089;DHT22;28709;52.030;5.652;2022-12-07T17:57:33;4.80;99.90
43089;DHT22;28709;52.030;5.652;2022-12-07T17:59:59;4.80;99.90
43089;DHT22;28709;52.030;5.652;2022-12-07T18:02:24;4.80;99.90
43089;DHT22;28709;52.030;5.652;2022-12-07T18:04:50;4.80;99.90
43089;DHT22;28709;52.030;5.652;2022-12-07T18:07:17;4.80;99.90
43089;DHT22;28709;52.030;5.652;2022-12-07T18:09:43;4.80;99.90
43089;DHT22;28709;52.030;5.652;2022-12-07T18:12:08;4.80;99.90
43089;DHT22;28709;52.030;5.652;2022-12-07T18:14:34;4.80;99.90